Weather observations for the past three days for
Faith Ranch Airport
| Date | Time (cdt) | Wind (mph) | Vis. (mi.) | Weather | Sky Cond. | Temperature (ºF) | Relative Humidity | Wind Chill (°F) | Heat Index (°F) | Pressure | Precipitation (in) | ||||||
|---|---|---|---|---|---|---|---|---|---|---|---|---|---|---|---|---|---|
| Air | Dwpt | 6 hour | altimeter (in) | sea level (mb) | 1 hr | 3 hr | 6 hr | ||||||||||
| Max. | Min. | ||||||||||||||||
| 07 | 22:35 | N 5 | 9.00 | Overcast | OVC027 | 71.6 | 62.6 | 73% | 30 | 0.0 | |||||||
| 07 | 22:15 | NW 3 | 8.00 | Overcast | OVC027 | 71.6 | 62.6 | 73% | 30 | 0.0 | |||||||
| 07 | 21:55 | N 6 | 8.00 | Overcast | OVC026 | 71.6 | 62.6 | 73% | 29.98 | 0.0 | |||||||
| 07 | 21:35 | NE 7 | 8.00 | Overcast | OVC026 | 71.6 | 62.6 | 73% | 29.96 | 0.0 | |||||||
| 07 | 21:15 | NE 6 | 9.00 | Overcast | OVC025 | 71.6 | 62.6 | 73% | 29.95 | 0.0 | |||||||
| 07 | 20:55 | NE 8 | 8.00 | Overcast | OVC024 | 71.6 | 62.6 | 73% | 29.93 | 0.0 | |||||||
| 07 | 20:35 | NE 7 | 9.00 | Overcast | OVC024 | 71.6 | 62.6 | 73% | 29.93 | 0.0 | |||||||
| 07 | 20:15 | N 8 | 7.00 | Overcast | OVC025 | 71.6 | 62.6 | 73% | 29.93 | 0.0 | |||||||
| 07 | 19:55 | NE 10 | 7.00 | Overcast | OVC026 | 73.4 | 62.6 | 69% | 29.93 | 0.0 | |||||||
| 07 | 19:35 | NE 8 | 7.00 | Overcast | OVC026 | 73.4 | 62.6 | 69% | 29.94 | 0.0 | |||||||
| 07 | 18:55 | E 8 | 7.00 | Overcast | OVC023 | 73.4 | 62.6 | 69% | 29.94 | 0.0 | |||||||
| 07 | 18:35 | E 9 G 16 | 7.00 | Mostly Cloudy | BKN022 | 73.4 | 64.4 | 74% | 29.93 | 0.0 | |||||||
| 07 | 18:15 | NE 13 | 7.00 | Mostly Cloudy | BKN022 | 73.4 | 62.6 | 69% | 29.92 | 0.0 | |||||||
| 07 | 17:55 | NE 14 G 23 | 7.00 | Fair | CLR | 73.4 | 62.6 | 69% | 29.92 | 0.0 | |||||||
| 07 | 17:35 | NE 15 | 6.00 | Fair with Haze | CLR | 73.4 | 62.6 | 69% | 29.93 | 0.0 | |||||||
| 07 | 17:15 | NE 12 G 21 | 6.00 | Fair with Haze | CLR | 73.4 | 62.6 | 69% | 29.93 | 0.0 | |||||||
| 07 | 16:55 | N 14 G 20 | 7.00 | A Few Clouds | FEW025 | 73.4 | 62.6 | 69% | 29.94 | 0.0 | |||||||
| 07 | 16:35 | NE 13 | 6.00 | Mostly Cloudy with Haze | BKN025 | 71.6 | 62.6 | 73% | 29.96 | 0.0 | |||||||
| 07 | 16:15 | N 12 | 6.00 | Overcast with Haze | OVC025 | 71.6 | 62.6 | 73% | 29.97 | 0.0 | |||||||
| 07 | 15:55 | N 10 | 7.00 | Overcast | OVC025 | 71.6 | 62.6 | 73% | 29.99 | 0.0 | |||||||
| 07 | 15:35 | N 9 G 15 | 6.00 | Overcast with Haze | OVC025 | 73.4 | 62.6 | 69% | 29.99 | 0.0 | |||||||
| 07 | 15:15 | NE 10 | 6.00 | Overcast with Haze | OVC024 | 73.4 | 62.6 | 69% | 29.99 | 0.0 | |||||||
| 07 | 14:55 | NE 13 | 6.00 | Mostly Cloudy with Haze | BKN023 | 73.4 | 62.6 | 69% | 29.98 | 0.0 | |||||||
| 07 | 14:35 | NE 13 G 18 | 6.00 | A Few Clouds with Haze | FEW021 | 73.4 | 62.6 | 69% | 29.98 | 0.0 | |||||||
| 07 | 14:15 | NE 12 | 6.00 | Mostly Cloudy with Haze | BKN021 | 73.4 | 62.6 | 69% | 29.98 | 0.0 | |||||||
| 07 | 13:35 | NE 8 G 16 | 6.00 | Overcast with Haze | OVC021 | 71.6 | 62.6 | 73% | 30 | 0.0 | |||||||
| 07 | 13:15 | NE 8 G 17 | 6.00 | Overcast with Haze | OVC021 | 71.6 | 62.6 | 73% | 30.01 | 0.0 | |||||||
| 07 | 12:55 | NE 9 G 16 | 5.00 | Overcast with Haze | OVC021 | 71.6 | 62.6 | 73% | 30.01 | 0.0 | |||||||
| 07 | 12:35 | E 17 | 5.00 | Overcast with Haze | OVC018 | 71.6 | 64.4 | 78% | 29.99 | 0.0 | |||||||
| 07 | 12:15 | NE 16 G 24 | 5.00 | Overcast with Haze | OVC016 | 73.4 | 64.4 | 74% | 29.99 | 0.0 | |||||||
| 07 | 11:55 | E 15 | 4.00 | Overcast with Haze | OVC015 | 69.8 | 64.4 | 83% | 30 | 0.0 | |||||||
| 07 | 11:35 | E 13 | 5.00 | Overcast with Haze | OVC016 | 71.6 | 64.4 | 78% | 30.01 | 0.0 | |||||||
| 07 | 11:15 | E 16 | 4.00 | Overcast with Haze | OVC015 | 71.6 | 64.4 | 78% | 30 | 0.0 | |||||||
| 07 | 10:55 | NE 12 | 4.00 | Overcast with Haze | OVC015 | 71.6 | 64.4 | 78% | 30.01 | 0.0 | |||||||
| 07 | 10:35 | E 9 | 4.00 | Overcast with Haze | OVC016 | 71.6 | 64.4 | 78% | 30 | 0.0 | |||||||
| 07 | 10:15 | E 10 | 7.00 | Overcast | OVC016 | 71.6 | 64.4 | 78% | 30 | 0.0 | |||||||
| 07 | 09:55 | E 12 | 7.00 | Overcast | OVC014 | 71.6 | 64.4 | 78% | 29.99 | 0.0 | |||||||
| 07 | 09:35 | E 10 | 6.00 | Overcast with Haze | OVC014 | 69.8 | 64.4 | 83% | 30 | 0.0 | |||||||
| 07 | 09:15 | NE 12 | 6.00 | Overcast with Haze | OVC014 | 69.8 | 64.4 | 83% | 30 | 0.0 | |||||||
| 07 | 08:55 | NE 9 | 6.00 | Overcast with Haze | OVC013 | 69.8 | 64.4 | 83% | 29.99 | 0.0 | |||||||
| 07 | 08:35 | E 10 | 6.00 | Overcast with Haze | OVC013 | 69.8 | 64.4 | 83% | 29.98 | 0.0 | |||||||
| 07 | 08:15 | E 8 G 16 | 7.00 | Overcast | OVC013 | 69.8 | 64.4 | 83% | 29.97 | 0.0 | |||||||
| 07 | 07:55 | NE 10 G 17 | 6.00 | Mostly Cloudy with Haze | BKN012 BKN031 | 69.8 | 64.4 | 83% | 29.96 | 0.0 | |||||||
| 07 | 07:35 | NE 8 G 14 | 7.00 | Mostly Cloudy | BKN011 | 68 | 64.4 | 88% | 29.95 | 0.0 | |||||||
| 07 | 07:15 | NE 13 | 7.00 | Mostly Cloudy | BKN010 BKN030 | 69.8 | 64.4 | 83% | 29.93 | 0.0 | |||||||
| 07 | 06:55 | E 14 | 8.00 | Overcast | OVC010 | 69.8 | 64.4 | 83% | 29.94 | 0.0 | |||||||
| 07 | 06:35 | NE 13 | 8.00 | Overcast | OVC011 | 69.8 | 64.4 | 83% | 29.94 | 0.0 | |||||||
| 07 | 06:15 | NE 12 G 18 | 8.00 | Overcast | OVC011 | 69.8 | 64.4 | 83% | 29.94 | 0.0 | |||||||
| 07 | 05:55 | E 14 | 7.00 | Overcast | OVC010 | 69.8 | 64.4 | 83% | 29.93 | 0.0 | |||||||
| 07 | 05:35 | NE 12 | 7.00 | Overcast | BKN010 OVC026 | 69.8 | 64.4 | 83% | 29.93 | 0.0 | |||||||
| 07 | 05:15 | NE 10 G 18 | 6.00 | Overcast with Haze | SCT010 OVC026 | 69.8 | 64.4 | 83% | 29.93 | 0.0 | |||||||
| 07 | 04:55 | E 10 G 20 | 7.00 | Overcast | OVC010 | 69.8 | 64.4 | 83% | 29.92 | 0.0 | |||||||
| 07 | 04:35 | NE 13 G 20 | 8.00 | Overcast | OVC011 | 69.8 | 64.4 | 83% | 29.92 | 0.0 | |||||||
| 07 | 04:15 | NE 14 | 8.00 | Overcast | OVC011 | 71.6 | 64.4 | 78% | 29.92 | 0.0 | |||||||
| 07 | 03:55 | NE 15 | 9.00 | Overcast | OVC012 | 71.6 | 64.4 | 78% | 29.93 | 0.0 | |||||||
| 07 | 03:35 | E 13 G 18 | 9.00 | Overcast | OVC012 | 71.6 | 64.4 | 78% | 29.92 | 0.0 | |||||||
| 07 | 03:15 | E 13 | 10.00 | Mostly Cloudy | BKN012 | 71.6 | 64.4 | 78% | 29.92 | 0.0 | |||||||
| 07 | 02:55 | NE 12 G 17 | 9.00 | A Few Clouds | FEW012 FEW022 | 71.6 | 64.4 | 78% | 29.92 | 0.0 | |||||||
| 07 | 02:35 | NE 12 G 22 | 9.00 | A Few Clouds | FEW022 | 71.6 | 64.4 | 78% | 29.92 | 0.0 | |||||||
| 07 | 02:15 | NE 14 G 20 | 7.00 | Fair | CLR | 71.6 | 64.4 | 78% | 29.92 | 0.0 | |||||||
| 07 | 01:55 | NE 12 G 18 | 7.00 | Fair | CLR | 73.4 | 66.2 | 78% | 29.92 | 0.0 | |||||||
| 07 | 01:35 | NE 15 | 7.00 | Fair | CLR | 73.4 | 66.2 | 78% | 29.93 | 0.0 | |||||||
| 07 | 01:15 | E 13 | 7.00 | Fair | CLR | 73.4 | 68 | 83% | 29.93 | 0.0 | |||||||
| 07 | 00:55 | E 9 G 20 | 7.00 | Fair | CLR | 75.2 | 68 | 78% | 76 | 29.92 | 0.0 | ||||||
| 07 | 00:35 | E 10 G 18 | 7.00 | Fair | CLR | 75.2 | 68 | 78% | 76 | 29.92 | 0.0 | ||||||
| 07 | 00:15 | E 9 G 18 | 7.00 | Fair | CLR | 77 | 69.8 | 79% | 79 | 29.91 | 0.0 | ||||||
| 06 | 23:55 | E 10 G 17 | 7.00 | Fair | CLR | 77 | 69.8 | 79% | 79 | 29.91 | 0.0 | ||||||
| 06 | 23:35 | NE 13 G 21 | 7.00 | Fair | CLR | 78.8 | 69.8 | 74% | 81 | 29.9 | 0.0 | ||||||
| 06 | 23:15 | NE 12 G 18 | 6.00 | Fair with Haze | CLR | 78.8 | 71.6 | 79% | 82 | 29.89 | 0.0 | ||||||
| 06 | 22:55 | NE 12 | 5.00 | Fair with Haze | CLR | 80.6 | 73.4 | 79% | 85 | 29.88 | 0.0 | ||||||
| 06 | 22:35 | NE 8 | 6.00 | Fair with Haze | CLR | 80.6 | 73.4 | 79% | 85 | 29.87 | 0.0 | ||||||
| 06 | 22:15 | NE 7 | 6.00 | Fair with Haze | CLR | 80.6 | 73.4 | 79% | 85 | 29.86 | 0.0 | ||||||
| 06 | 21:55 | NE 7 | 7.00 | Fair | CLR | 82.4 | 73.4 | 74% | 88 | 29.85 | 0.0 | ||||||
| 06 | 21:35 | NE 6 | 6.00 | Fair with Haze | CLR | 82.4 | 73.4 | 74% | 88 | 29.84 | 0.0 | ||||||
| 06 | 21:15 | NE 6 | 10.00 | Fair | CLR | 82.4 | 73.4 | 74% | 88 | 29.83 | 0.0 | ||||||
| 06 | 20:55 | E 7 | 9.00 | Fair | CLR | 84.2 | 73.4 | 70% | 91 | 29.83 | 0.0 | ||||||
| 06 | 20:35 | E 8 | 6.00 | Fair with Haze | CLR | 84.2 | 73.4 | 70% | 91 | 29.82 | 0.0 | ||||||
| 06 | 20:15 | NE 7 G 13 | 5.00 | Fair with Haze | CLR | 86 | 73.4 | 66% | 93 | 29.82 | 0.0 | ||||||
| 06 | 19:55 | NE 9 | 5.00 | A Few Clouds with Haze | FEW037 | 86 | 73.4 | 66% | 93 | 29.8 | 0.0 | ||||||
| 06 | 19:35 | NE 10 | 6.00 | Partly Cloudy with Haze | SCT037 | 86 | 73.4 | 66% | 93 | 29.8 | 0.0 | ||||||
| 06 | 19:15 | NE 13 | 5.00 | A Few Clouds with Haze | FEW037 | 87.8 | 73.4 | 62% | 96 | 29.79 | 0.0 | ||||||
| 06 | 18:55 | NE 13 | 5.00 | Fair with Haze | CLR | 89.6 | 73.4 | 59% | 98 | 29.79 | 0.0 | ||||||
| 06 | 18:35 | NE 12 G 18 | 5.00 | Fair with Haze | CLR | 89.6 | 73.4 | 59% | 98 | 29.78 | 0.0 | ||||||
| 06 | 18:15 | E 10 G 18 | 5.00 | Fair with Haze | CLR | 89.6 | 73.4 | 59% | 98 | 29.76 | 0.0 | ||||||
| 06 | 17:55 | NE 14 | 5.00 | Fair with Haze | CLR | 89.6 | 73.4 | 59% | 98 | 29.76 | 0.0 | ||||||
| 06 | 17:35 | NE 14 G 22 | 6.00 | A Few Clouds with Haze | FEW042 | 89.6 | 73.4 | 59% | 98 | 29.75 | 0.0 | ||||||
| 06 | 17:15 | NE 10 G 20 | 5.00 | Fair with Haze | CLR | 91.4 | 73.4 | 56% | 100 | 29.76 | 0.0 | ||||||
| 06 | 16:55 | NE 12 | 5.00 | Fair with Haze | CLR | 91.4 | 73.4 | 56% | 100 | 29.76 | 0.0 | ||||||
| 06 | 16:35 | N 8 G 16 | 5.00 | Fair with Haze | CLR | 89.6 | 73.4 | 59% | 98 | 29.76 | 0.0 | ||||||
| 06 | 16:15 | NE 10 G 16 | 5.00 | A Few Clouds with Haze | FEW036 FEW044 | 89.6 | 73.4 | 59% | 98 | 29.77 | 0.0 | ||||||
| 06 | 15:55 | NE 10 G 16 | 5.00 | A Few Clouds with Haze | FEW031 FEW041 | 87.8 | 75.2 | 66% | 98 | 29.78 | 0.0 | ||||||
| 06 | 15:35 | E 8 G 16 | 5.00 | Partly Cloudy with Haze | SCT030 SCT041 SCT047 | 87.8 | 75.2 | 66% | 98 | 29.79 | 0.0 | ||||||
| 06 | 15:15 | Vrbl 7 G 15 | 5.00 | Mostly Cloudy with Haze | SCT029 BKN036 BKN046 | 86 | 75.2 | 70% | 95 | 29.79 | 0.0 | ||||||
| 06 | 14:55 | E 7 | 4.00 | Mostly Cloudy with Haze | SCT029 BKN037 | 87.8 | 75.2 | 66% | 98 | 29.8 | 0.0 | ||||||
| 06 | 14:35 | E 8 G 14 | 4.00 | Partly Cloudy with Haze | SCT027 | 86 | 75.2 | 70% | 95 | 29.81 | 0.0 | ||||||
| 06 | 14:15 | NE 7 G 13 | 5.00 | Overcast with Haze | BKN027 OVC033 | 84.2 | 75.2 | 74% | 92 | 29.82 | 0.0 | ||||||
| 06 | 13:55 | N 7 | 4.00 | Mostly Cloudy with Haze | SCT026 BKN030 BKN037 | 84.2 | 75.2 | 74% | 92 | 29.82 | 0.0 | ||||||
| 06 | 13:35 | Vrbl 6 | 4.00 | Partly Cloudy with Haze | FEW021 SCT025 SCT036 | 84.2 | 75.2 | 74% | 92 | 29.83 | 0.0 | ||||||
| 06 | 13:15 | Vrbl 6 | 4.00 | Overcast with Haze | BKN021 OVC025 | 82.4 | 75.2 | 79% | 89 | 29.83 | 0.0 | ||||||
| 06 | 12:55 | N 8 | 4.00 | Overcast with Haze | BKN022 OVC026 | 82.4 | 75.2 | 79% | 89 | 29.84 | 0.0 | ||||||
| 06 | 12:35 | Calm | 4.00 | Overcast with Haze | OVC024 | 82.4 | 75.2 | 79% | 89 | 29.85 | 0.0 | ||||||
| 06 | 12:15 | NE 5 | 4.00 | Overcast with Haze | OVC023 | 80.6 | 75.2 | 84% | 86 | 29.84 | 0.0 | ||||||
| 06 | 11:55 | Vrbl 3 | 4.00 | Overcast with Haze | OVC024 | 80.6 | 75.2 | 84% | 86 | 29.84 | 0.0 | ||||||
| 06 | 11:35 | Calm | 3.00 | Overcast with Haze | FEW020 OVC026 | 80.6 | 75.2 | 84% | 86 | 29.83 | 0.0 | ||||||
| 06 | 11:15 | Vrbl 3 | 4.00 | Overcast with Haze | OVC020 | 80.6 | 75.2 | 84% | 86 | 29.82 | 0.0 | ||||||
| 06 | 10:55 | E 3 | 5.00 | Overcast with Haze | BKN018 OVC024 | 80.6 | 75.2 | 84% | 86 | 29.82 | 0.0 | ||||||
| 06 | 10:35 | Calm | 5.00 | Overcast with Haze | SCT017 OVC023 | 80.6 | 75.2 | 84% | 86 | 29.81 | 0.0 | ||||||
| 06 | 10:15 | SE 3 | 5.00 | Overcast with Haze | OVC022 | 80.6 | 75.2 | 84% | 86 | 29.8 | 0.0 | ||||||
| 06 | 09:55 | S 3 | 5.00 | Overcast with Haze | OVC019 | 78.8 | 75.2 | 89% | 82 | 29.8 | 0.0 | ||||||
| 06 | 09:35 | Calm | 5.00 | Fog/Mist | OVC016 | 78.8 | 75.2 | 89% | 82 | 29.8 | 0.0 | ||||||
| 06 | 09:15 | S 5 | 5.00 | Fog/Mist | BKN015 | 78.8 | 75.2 | 89% | 82 | 29.8 | 0.0 | ||||||
| 06 | 08:55 | Calm | 5.00 | Fog/Mist | BKN016 | 78.8 | 75.2 | 89% | 82 | 29.8 | 0.0 | ||||||
| 06 | 08:35 | S 6 | 5.00 | Fog/Mist | OVC016 | 78.8 | 75.2 | 89% | 82 | 29.79 | 0.0 | ||||||
| 06 | 08:15 | S 6 | 5.00 | Fog/Mist | OVC016 | 78.8 | 75.2 | 89% | 82 | 29.79 | 0.0 | ||||||
| 06 | 07:55 | Vrbl 5 | 5.00 | Fog/Mist | BKN017 | 78.8 | 75.2 | 89% | 82 | 29.78 | 0.0 | ||||||
| 06 | 07:35 | SE 8 | 5.00 | Fog/Mist | BKN018 | 78.8 | 73.4 | 84% | 82 | 29.77 | 0.0 | ||||||
| 06 | 07:15 | SE 8 | 6.00 | Fog/Mist | OVC017 | 78.8 | 73.4 | 84% | 82 | 29.77 | 0.0 | ||||||
| 06 | 06:55 | SE 7 | 7.00 | Overcast | OVC016 | 78.8 | 73.4 | 84% | 82 | 29.77 | 0.0 | ||||||
| 06 | 06:35 | Calm | 7.00 | Overcast | OVC017 | 78.8 | 73.4 | 84% | 82 | 29.76 | 0.0 | ||||||
| 06 | 06:15 | SE 8 | 7.00 | Overcast | OVC017 | 78.8 | 73.4 | 84% | 82 | 29.76 | 0.0 | ||||||
| 06 | 05:55 | SE 6 | 7.00 | Overcast | OVC016 | 78.8 | 75.2 | 89% | 82 | 29.75 | 0.0 | ||||||
| 06 | 05:35 | SE 5 | 7.00 | Overcast | OVC016 | 78.8 | 73.4 | 84% | 82 | 29.75 | 0.0 | ||||||
| 06 | 04:55 | E 5 | 7.00 | Overcast | OVC016 | 78.8 | 75.2 | 89% | 82 | 29.75 | 0.0 | ||||||
| 06 | 04:35 | Vrbl 5 G 12 | 7.00 | Overcast | OVC016 | 78.8 | 75.2 | 89% | 82 | 29.75 | 0.0 | ||||||
| 06 | 04:15 | SE 10 | 7.00 | Overcast | OVC016 | 78.8 | 75.2 | 89% | 82 | 29.74 | 0.0 | ||||||
| 06 | 03:55 | E 3 | 8.00 | Overcast | OVC016 | 78.8 | 75.2 | 89% | 82 | 29.74 | 0.0 | ||||||
| 06 | 03:35 | E 7 | 8.00 | Mostly Cloudy | BKN017 | 77 | 73.4 | 89% | 78 | 29.74 | 0.0 | ||||||
| 06 | 03:15 | E 6 | 8.00 | Partly Cloudy | SCT018 | 78.8 | 73.4 | 84% | 82 | 29.74 | 0.0 | ||||||
| 06 | 02:55 | SE 8 G 14 | 8.00 | Mostly Cloudy | BKN020 | 78.8 | 73.4 | 84% | 82 | 29.74 | 0.0 | ||||||
| 06 | 02:35 | SE 10 | 9.00 | Overcast | OVC021 | 78.8 | 73.4 | 84% | 82 | 29.74 | 0.0 | ||||||
| 06 | 02:15 | SE 10 | 9.00 | Overcast | OVC024 | 80.6 | 73.4 | 79% | 85 | 29.74 | 0.0 | ||||||
| 06 | 01:55 | SE 10 G 18 | 9.00 | Mostly Cloudy | BKN026 | 80.6 | 73.4 | 79% | 85 | 29.74 | 0.0 | ||||||
| 06 | 01:35 | SE 12 G 18 | 9.00 | A Few Clouds | FEW026 | 80.6 | 73.4 | 79% | 85 | 29.74 | 0.0 | ||||||
| 06 | 01:15 | SE 9 G 16 | 9.00 | Fair | CLR | 82.4 | 73.4 | 74% | 88 | 29.73 | 0.0 | ||||||
| 06 | 00:55 | SE 12 | 9.00 | Fair | CLR | 82.4 | 73.4 | 74% | 88 | 29.73 | 0.0 | ||||||
| 06 | 00:35 | SE 10 G 17 | 10.00 | Fair | CLR | 84.2 | 73.4 | 70% | 91 | 29.73 | 0.0 | ||||||
| 06 | 00:15 | E 9 G 16 | 10.00 | Fair | CLR | 84.2 | 73.4 | 70% | 91 | 29.72 | 0.0 | ||||||
| 05 | 23:55 | SE 10 G 17 | 10.00 | Fair | CLR | 84.2 | 73.4 | 70% | 91 | 29.72 | 0.0 | ||||||
| 05 | 23:35 | E 7 | 10.00 | Fair | CLR | 84.2 | 71.6 | 66% | 90 | 29.72 | 0.0 | ||||||
| 05 | 23:15 | E 8 | 10.00 | Fair | CLR | 86 | 71.6 | 62% | 92 | 29.71 | 0.0 | ||||||
| 05 | 22:55 | E 5 | 10.00 | Fair | CLR | 84.2 | 71.6 | 66% | 90 | 29.71 | 0.0 | ||||||
| 05 | 22:35 | NE 6 | 10.00 | Fair | CLR | 86 | 71.6 | 62% | 92 | 29.7 | 0.0 | ||||||
| 05 | 22:15 | NE 7 | 10.00 | Fair | CLR | 86 | 71.6 | 62% | 92 | 29.69 | 0.0 | ||||||
| 05 | 21:55 | NE 7 | 10.00 | Fair | CLR | 87.8 | 69.8 | 55% | 93 | 29.68 | 0.0 | ||||||
| 05 | 21:35 | NE 7 | 10.00 | Fair | CLR | 87.8 | 69.8 | 55% | 93 | 29.67 | 0.0 | ||||||
| 05 | 21:15 | E 8 | 10.00 | Fair | CLR | 87.8 | 69.8 | 55% | 93 | 29.67 | 0.0 | ||||||
| 05 | 20:55 | NE 7 | 10.00 | Fair | CLR | 89.6 | 68 | 49% | 93 | 29.66 | 0.0 | ||||||
| 05 | 20:35 | NE 6 | 10.00 | Fair | CLR | 89.6 | 69.8 | 52% | 95 | 29.65 | 0.0 | ||||||
| 05 | 20:15 | NE 5 | 10.00 | Fair | CLR | 91.4 | 68 | 46% | 96 | 29.64 | 0.0 | ||||||
| 05 | 19:55 | NE 6 | 10.00 | Fair | CLR | 95 | 68 | 41% | 100 | 29.63 | 0.0 | ||||||
| 05 | 19:35 | NE 6 | 10.00 | Fair | CLR | 95 | 68 | 41% | 100 | 29.63 | 0.0 | ||||||
| 05 | 19:15 | NE 6 G 12 | 10.00 | Fair | CLR | 95 | 68 | 41% | 100 | 29.63 | 0.0 | ||||||
| 05 | 18:55 | E 6 | 10.00 | Fair | CLR | 96.8 | 68 | 39% | 102 | 29.63 | 0.0 | ||||||
| 05 | 18:35 | E 9 G 16 | 10.00 | Fair | CLR | 96.8 | 66.2 | 37% | 100 | 29.63 | 0.0 | ||||||
| 05 | 18:15 | E 9 | 10.00 | Fair | CLR | 96.8 | 68 | 39% | 102 | 29.63 | 0.0 | ||||||
| 05 | 17:55 | E 6 | 10.00 | Fair | CLR | 96.8 | 68 | 39% | 102 | 29.63 | 0.0 | ||||||
| 05 | 17:35 | E 6 G 14 | 10.00 | Fair | CLR | 96.8 | 68 | 39% | 102 | 29.63 | 0.0 | ||||||
| 05 | 17:15 | Vrbl 6 G 12 | 10.00 | Fair | CLR | 96.8 | 68 | 39% | 102 | 29.64 | 0.0 | ||||||
| 05 | 16:55 | Vrbl 3 | 10.00 | Fair | CLR | 96.8 | 68 | 39% | 102 | 29.65 | 0.0 | ||||||
| 05 | 16:35 | Vrbl 3 | 10.00 | Fair | CLR | 96.8 | 69.8 | 42% | 103 | 29.66 | 0.0 | ||||||
| 05 | 16:15 | Vrbl 5 | 10.00 | Fair | CLR | 95 | 69.8 | 44% | 101 | 29.67 | 0.0 | ||||||
| 05 | 15:55 | Calm | 10.00 | Fair | CLR | 96.8 | 69.8 | 42% | 103 | 29.68 | 0.0 | ||||||
| 05 | 15:35 | SE 8 | 10.00 | Fair | CLR | 95 | 69.8 | 44% | 101 | 29.69 | 0.0 | ||||||
| 05 | 15:15 | Vrbl 5 G 12 | 10.00 | Fair | CLR | 93.2 | 68 | 44% | 98 | 29.7 | 0.0 | ||||||
| 05 | 14:55 | SW 9 | 10.00 | Fair | CLR | 93.2 | 69.8 | 47% | 99 | 29.7 | 0.0 | ||||||
| 05 | 14:35 | Vrbl 7 | 10.00 | Fair | CLR | 93.2 | 71.6 | 50% | 101 | 29.71 | 0.0 | ||||||
| 05 | 14:15 | S 10 | 7.00 | Fair | CLR | 91.4 | 71.6 | 52% | 99 | 29.72 | 0.0 | ||||||
| 05 | 13:55 | SW 8 | 6.00 | Fair with Haze | CLR | 91.4 | 71.6 | 52% | 99 | 29.73 | 0.0 | ||||||
| 05 | 13:35 | S 9 | 6.00 | Fair with Haze | CLR | 89.6 | 71.6 | 55% | 96 | 29.74 | 0.0 | ||||||
| 05 | 13:15 | SE 7 | 6.00 | Fair with Haze | CLR | 87.8 | 71.6 | 59% | 94 | 29.75 | 0.0 | ||||||
| 05 | 12:55 | Vrbl 6 | 6.00 | Fair with Haze | CLR | 87.8 | 71.6 | 59% | 94 | 29.76 | 0.0 | ||||||
| 05 | 12:35 | SE 9 | 7.00 | Fair | CLR | 86 | 71.6 | 62% | 92 | 29.76 | 0.0 | ||||||
| 05 | 12:15 | S 6 G 14 | 6.00 | Fair with Haze | CLR | 86 | 71.6 | 62% | 92 | 29.77 | 0.0 | ||||||
| 05 | 11:55 | SE 8 | 6.00 | Fair with Haze | CLR | 84.2 | 71.6 | 66% | 90 | 29.77 | 0.0 | ||||||
| 05 | 11:35 | SE 8 G 14 | 7.00 | Fair | CLR | 82.4 | 71.6 | 70% | 87 | 29.77 | 0.0 | ||||||
| 05 | 11:15 | S 7 G 14 | 7.00 | Fair | CLR | 82.4 | 71.6 | 70% | 87 | 29.77 | 0.0 | ||||||
| 05 | 10:55 | Vrbl 7 G 13 | 7.00 | A Few Clouds | FEW018 | 80.6 | 71.6 | 74% | 85 | 29.78 | 0.0 | ||||||
| 05 | 10:35 | SE 6 | 6.00 | A Few Clouds with Haze | FEW017 | 78.8 | 71.6 | 79% | 82 | 29.78 | 0.0 | ||||||
| 05 | 10:15 | Vrbl 3 | 7.00 | Partly Cloudy | SCT013 | 77 | 71.6 | 83% | 78 | 29.78 | 0.0 | ||||||
| 05 | 09:55 | SE 7 | 6.00 | Overcast with Haze | OVC013 | 77 | 71.6 | 83% | 78 | 29.79 | 0.0 | ||||||
| 05 | 09:35 | S 9 | 6.00 | Fog/Mist | OVC013 | 75.2 | 71.6 | 89% | 75 | 29.79 | 0.0 | ||||||
| 05 | 09:15 | S 8 | 6.00 | Fog/Mist | OVC013 | 75.2 | 71.6 | 89% | 75 | 29.79 | 0.0 | ||||||
| 05 | 08:55 | S 9 | 6.00 | Fog/Mist | OVC012 | 73.4 | 71.6 | 94% | 29.79 | 0.0 | |||||||
| 05 | 08:35 | S 7 G 13 | 6.00 | Fog/Mist | OVC012 | 73.4 | 71.6 | 94% | 29.78 | 0.0 | |||||||
| 05 | 08:15 | S 7 | 6.00 | Fog/Mist | OVC011 | 73.4 | 71.6 | 94% | 29.78 | 0.0 | |||||||
| 05 | 07:55 | S 6 | 6.00 | Fog/Mist | OVC011 | 73.4 | 69.8 | 89% | 29.78 | 0.0 | |||||||
| 05 | 07:35 | S 6 | 6.00 | Fog/Mist | OVC011 | 71.6 | 69.8 | 94% | 29.77 | 0.0 | |||||||
| 05 | 07:15 | S 8 | 6.00 | Fog/Mist | OVC010 | 71.6 | 69.8 | 94% | 29.76 | 0.0 | |||||||
| 05 | 06:55 | SE 7 | 8.00 | Overcast | OVC010 | 71.6 | 69.8 | 94% | 29.76 | 0.0 | |||||||
| 05 | 06:35 | S 7 | 8.00 | Overcast | OVC010 | 71.6 | 69.8 | 94% | 29.75 | 0.0 | |||||||
| 05 | 06:15 | S 7 | 7.00 | Overcast | OVC011 | 71.6 | 69.8 | 94% | 29.75 | 0.0 | |||||||
| 05 | 05:55 | S 7 G 17 | 8.00 | Overcast | OVC011 | 71.6 | 69.8 | 94% | 29.75 | 0.0 | |||||||
| 05 | 05:35 | S 9 G 18 | 8.00 | Overcast | OVC011 | 71.6 | 69.8 | 94% | 29.75 | 0.0 | |||||||
| 05 | 05:15 | S 15 G 24 | 8.00 | Overcast | OVC011 | 71.6 | 69.8 | 94% | 29.75 | 0.0 | |||||||
| 05 | 04:55 | S 12 | 8.00 | Overcast | OVC011 | 71.6 | 69.8 | 94% | 29.75 | 0.0 | |||||||
| 05 | 04:35 | SE 15 | 8.00 | Overcast | OVC011 | 71.6 | 69.8 | 94% | 29.75 | 0.0 | |||||||
| 05 | 04:15 | S 15 G 22 | 8.00 | Overcast | OVC011 | 71.6 | 69.8 | 94% | 29.75 | 0.0 | |||||||
| 05 | 03:55 | S 12 | 8.00 | Overcast | OVC013 | 71.6 | 69.8 | 94% | 29.75 | 0.0 | |||||||
| 05 | 03:35 | S 12 | 8.00 | Mostly Cloudy | BKN013 | 71.6 | 69.8 | 94% | 29.76 | 0.0 | |||||||
| 05 | 03:15 | SE 8 G 15 | 8.00 | A Few Clouds | FEW015 | 71.6 | 69.8 | 94% | 29.77 | 0.0 | |||||||
| 05 | 02:55 | S 12 G 18 | 8.00 | Fair | CLR | 73.4 | 69.8 | 89% | 29.78 | 0.0 | |||||||
| 05 | 02:35 | S 9 G 22 | 8.00 | Fair | CLR | 73.4 | 69.8 | 89% | 29.78 | 0.0 | |||||||
| 05 | 02:15 | S 12 G 17 | 8.00 | Fair | CLR | 73.4 | 69.8 | 89% | 29.79 | 0.0 | |||||||
| 05 | 01:55 | SE 10 G 16 | 8.00 | Fair | CLR | 73.4 | 69.8 | 89% | 29.8 | 0.0 | |||||||
| 05 | 01:35 | SE 10 | 8.00 | Fair | CLR | 73.4 | 69.8 | 89% | 29.81 | 0.0 | |||||||
| 05 | 01:15 | SE 8 | 8.00 | Fair | CLR | 73.4 | 69.8 | 89% | 29.81 | 0.0 | |||||||
| 05 | 00:55 | SE 9 | 8.00 | Fair | CLR | 75.2 | 69.8 | 83% | 75 | 29.81 | 0.0 | ||||||
| 05 | 00:35 | SE 8 | 9.00 | Fair | CLR | 75.2 | 68 | 78% | 76 | 29.82 | 0.0 | ||||||
| 05 | 00:15 | SE 8 | 8.00 | Fair | CLR | 75.2 | 68 | 78% | 76 | 29.82 | 0.0 | ||||||
| 04 | 23:55 | SE 8 G 14 | 9.00 | Fair | CLR | 75.2 | 68 | 78% | 76 | 29.82 | 0.0 | ||||||
| 04 | 23:35 | SE 7 | 9.00 | Fair | CLR | 75.2 | 68 | 78% | 76 | 29.83 | 0.0 | ||||||
| 04 | 23:15 | SE 7 | 9.00 | Fair | CLR | 75.2 | 68 | 78% | 76 | 29.82 | 0.0 | ||||||
| Date | Time (cdt) | Wind (mph) | Vis. (mi.) | Weather | Sky Cond. | Air | Dwpt | Max. | Min. | Relative Humidity | Wind Chill (°F) | Heat Index (°F) | altimeter (in) | sea level (mb) | 1 hr | 3 hr | 6 hr |
| 6 hour | |||||||||||||||||
| Temperature (ºF) | Pressure | Precipitation (in) | |||||||||||||||